sensor_id;sensor_type;location;lat;lon;timestamp;pressure;altitude;pressure_sealevel;temperature;humidity
24280;BME280;12395;42.808;23.408;2022-10-16T00:01:38;95539.97;;;8.28;100.00
24280;BME280;12395;42.808;23.408;2022-10-16T00:04:04;95541.28;;;8.24;100.00
24280;BME280;12395;42.808;23.408;2022-10-16T00:06:30;95541.69;;;8.13;100.00
24280;BME280;12395;42.808;23.408;2022-10-16T00:08:56;95565.34;;;8.06;100.00
24280;BME280;12395;42.808;23.408;2022-10-16T00:11:28;95549.56;;;7.98;100.00
24280;BME280;12395;42.808;23.408;2022-10-16T00:13:59;95559.59;;;8.03;100.00
24280;BME280;12395;42.808;23.408;2022-10-16T00:16:25;95563.25;;;8.02;100.00
24280;BME280;12395;42.808;23.408;2022-10-16T00:18:50;95560.63;;;7.94;100.00
24280;BME280;12395;42.808;23.408;2022-10-16T00:21:19;95546.88;;;7.84;100.00
24280;BME280;12395;42.808;23.408;2022-10-16T00:23:45;95556.13;;;7.79;100.00
24280;BME280;12395;42.808;23.408;2022-10-16T00:26:13;95543.97;;;7.70;100.00
24280;BME280;12395;42.808;23.408;2022-10-16T00:28:39;95555.81;;;7.74;100.00
24280;BME280;12395;42.808;23.408;2022-10-16T00:31:06;95565.66;;;7.80;100.00
24280;BME280;12395;42.808;23.408;2022-10-16T00:33:32;95558.00;;;7.71;100.00
24280;BME280;12395;42.808;23.408;2022-10-16T00:35:58;95561.47;;;7.63;100.00
24280;BME280;12395;42.808;23.408;2022-10-16T00:38:24;95572.38;;;7.60;100.00
24280;BME280;12395;42.808;23.408;2022-10-16T00:40:49;95567.03;;;7.46;100.00
24280;BME280;12395;42.808;23.408;2022-10-16T00:43:37;95561.63;;;7.39;100.00
24280;BME280;12395;42.808;23.408;2022-10-16T00:46:26;95562.31;;;7.33;100.00
24280;BME280;12395;42.808;23.408;2022-10-16T00:48:52;95569.53;;;7.39;100.00
24280;BME280;12395;42.808;23.408;2022-10-16T00:51:22;95556.41;;;7.23;100.00
24280;BME280;12395;42.808;23.408;2022-10-16T00:53:49;95571.56;;;7.21;100.00
24280;BME280;12395;42.808;23.408;2022-10-16T00:56:15;95559.91;;;7.16;100.00
24280;BME280;12395;42.808;23.408;2022-10-16T00:58:41;95557.09;;;7.17;100.00
24280;BME280;12395;42.808;23.408;2022-10-16T01:01:06;95567.16;;;7.14;100.00
24280;BME280;12395;42.808;23.408;2022-10-16T01:03:35;95571.44;;;7.07;100.00
24280;BME280;12395;42.808;23.408;2022-10-16T01:06:35;95576.53;;;7.08;100.00
24280;BME280;12395;42.808;23.408;2022-10-16T01:09:14;95573.78;;;6.93;100.00
24280;BME280;12395;42.808;23.408;2022-10-16T01:11:57;95581.88;;;6.92;100.00
24280;BME280;12395;42.808;23.408;2022-10-16T01:14:34;95572.66;;;6.88;100.00
24280;BME280;12395;42.808;23.408;2022-10-16T01:17:15;95567.53;;;6.86;100.00
24280;BME280;12395;42.808;23.408;2022-10-16T01:28:13;95556.06;;;6.79;100.00
24280;BME280;12395;42.808;23.408;2022-10-16T01:30:42;95553.28;;;6.73;100.00
24280;BME280;12395;42.808;23.408;2022-10-16T01:35:43;95563.47;;;6.68;100.00
24280;BME280;12395;42.808;23.408;2022-10-16T01:38:40;95573.19;;;6.59;100.00
24280;BME280;12395;42.808;23.408;2022-10-16T01:41:12;95575.00;;;6.59;100.00
24280;BME280;12395;42.808;23.408;2022-10-16T01:43:47;95574.69;;;6.54;100.00
24280;BME280;12395;42.808;23.408;2022-10-16T01:46:17;95585.72;;;6.57;100.00
24280;BME280;12395;42.808;23.408;2022-10-16T01:48:43;95590.50;;;6.54;100.00
24280;BME280;12395;42.808;23.408;2022-10-16T01:51:12;95584.25;;;6.47;100.00
24280;BME280;12395;42.808;23.408;2022-10-16T01:53:40;95572.06;;;6.30;100.00
24280;BME280;12395;42.808;23.408;2022-10-16T01:56:09;95591.16;;;6.48;100.00
24280;BME280;12395;42.808;23.408;2022-10-16T01:58:43;95586.88;;;6.39;100.00
24280;BME280;12395;42.808;23.408;2022-10-16T02:01:11;95591.00;;;6.41;100.00
24280;BME280;12395;42.808;23.408;2022-10-16T02:03:38;95593.94;;;6.38;100.00
24280;BME280;12395;42.808;23.408;2022-10-16T02:06:06;95570.59;;;6.19;100.00
24280;BME280;12395;42.808;23.408;2022-10-16T02:08:33;95562.03;;;6.01;100.00
24280;BME280;12395;42.808;23.408;2022-10-16T02:10:59;95595.09;;;6.11;100.00
24280;BME280;12395;42.808;23.408;2022-10-16T02:13:31;95597.56;;;6.13;100.00
24280;BME280;12395;42.808;23.408;2022-10-16T02:15:58;95600.19;;;6.13;100.00
24280;BME280;12395;42.808;23.408;2022-10-16T02:18:24;95605.09;;;6.16;100.00
24280;BME280;12395;42.808;23.408;2022-10-16T02:20:59;95612.84;;;6.26;100.00
24280;BME280;12395;42.808;23.408;2022-10-16T02:23:36;95612.69;;;6.27;100.00
24280;BME280;12395;42.808;23.408;2022-10-16T02:26:08;95602.00;;;6.20;100.00
24280;BME280;12395;42.808;23.408;2022-10-16T02:28:50;95607.59;;;6.26;100.00
24280;BME280;12395;42.808;23.408;2022-10-16T02:31:22;95617.47;;;6.32;100.00
24280;BME280;12395;42.808;23.408;2022-10-16T02:33:48;95599.53;;;6.27;100.00
24280;BME280;12395;42.808;23.408;2022-10-16T02:36:16;95614.66;;;6.25;100.00
24280;BME280;12395;42.808;23.408;2022-10-16T02:38:41;95608.09;;;6.21;100.00
24280;BME280;12395;42.808;23.408;2022-10-16T02:41:07;95614.84;;;6.23;100.00
24280;BME280;12395;42.808;23.408;2022-10-16T02:43:33;95608.91;;;6.13;100.00
24280;BME280;12395;42.808;23.408;2022-10-16T02:45:59;95612.03;;;6.09;100.00
24280;BME280;12395;42.808;23.408;2022-10-16T02:48:25;95609.38;;;6.01;100.00
24280;BME280;12395;42.808;23.408;2022-10-16T02:50:50;95615.44;;;6.01;100.00
24280;BME280;12395;42.808;23.408;2022-10-16T02:53:16;95619.56;;;6.04;100.00
24280;BME280;12395;42.808;23.408;2022-10-16T02:55:41;95615.81;;;6.06;100.00
24280;BME280;12395;42.808;23.408;2022-10-16T02:58:07;95625.50;;;6.06;100.00
24280;BME280;12395;42.808;23.408;2022-10-16T03:00:32;95619.88;;;6.01;100.00
24280;BME280;12395;42.808;23.408;2022-10-16T03:02:58;95604.56;;;5.88;100.00
24280;BME280;12395;42.808;23.408;2022-10-16T03:05:23;95611.81;;;5.86;100.00
24280;BME280;12395;42.808;23.408;2022-10-16T03:07:48;95627.88;;;5.83;100.00
24280;BME280;12395;42.808;23.408;2022-10-16T03:10:14;95627.88;;;5.83;100.00
24280;BME280;12395;42.808;23.408;2022-10-16T03:12:40;95643.97;;;5.80;100.00
24280;BME280;12395;42.808;23.408;2022-10-16T03:15:06;95623.91;;;5.71;100.00
24280;BME280;12395;42.808;23.408;2022-10-16T03:17:32;95624.75;;;5.80;100.00
24280;BME280;12395;42.808;23.408;2022-10-16T03:19:58;95614.88;;;5.82;100.00
24280;BME280;12395;42.808;23.408;2022-10-16T03:22:24;95631.69;;;5.89;100.00
24280;BME280;12395;42.808;23.408;2022-10-16T03:24:49;95632.13;;;5.76;100.00
24280;BME280;12395;42.808;23.408;2022-10-16T03:27:14;95625.69;;;5.63;100.00
24280;BME280;12395;42.808;23.408;2022-10-16T03:29:40;95634.75;;;5.68;100.00
24280;BME280;12395;42.808;23.408;2022-10-16T03:32:05;95641.16;;;5.74;100.00
24280;BME280;12395;42.808;23.408;2022-10-16T03:34:31;95635.06;;;5.73;100.00
24280;BME280;12395;42.808;23.408;2022-10-16T03:36:56;95637.38;;;5.68;100.00
24280;BME280;12395;42.808;23.408;2022-10-16T03:39:21;95623.69;;;5.57;100.00
24280;BME280;12395;42.808;23.408;2022-10-16T03:41:47;95633.22;;;5.58;100.00
24280;BME280;12395;42.808;23.408;2022-10-16T03:44:13;95622.84;;;5.48;100.00
24280;BME280;12395;42.808;23.408;2022-10-16T03:46:38;95632.88;;;5.53;100.00
24280;BME280;12395;42.808;23.408;2022-10-16T03:49:04;95623.31;;;5.43;100.00
24280;BME280;12395;42.808;23.408;2022-10-16T03:51:29;95625.28;;;5.49;100.00
24280;BME280;12395;42.808;23.408;2022-10-16T03:53:55;95612.97;;;5.42;100.00
24280;BME280;12395;42.808;23.408;2022-10-16T03:56:20;95623.50;;;5.50;100.00
24280;BME280;12395;42.808;23.408;2022-10-16T03:58:46;95633.22;;;5.58;100.00
24280;BME280;12395;42.808;23.408;2022-10-16T04:01:11;95637.66;;;5.57;100.00
24280;BME280;12395;42.808;23.408;2022-10-16T04:03:37;95621.69;;;5.42;100.00
24280;BME280;12395;42.808;23.408;2022-10-16T04:06:02;95621.97;;;5.39;100.00
24280;BME280;12395;42.808;23.408;2022-10-16T04:08:28;95609.97;;;5.37;100.00
24280;BME280;12395;42.808;23.408;2022-10-16T04:10:53;95607.22;;;5.38;100.00
24280;BME280;12395;42.808;23.408;2022-10-16T04:13:18;95617.28;;;5.51;100.00
24280;BME280;12395;42.808;23.408;2022-10-16T04:15:45;95617.09;;;5.44;100.00
24280;BME280;12395;42.808;23.408;2022-10-16T04:18:11;95636.34;;;5.53;100.00
24280;BME280;12395;42.808;23.408;2022-10-16T04:20:36;95640.94;;;5.59;100.00
24280;BME280;12395;42.808;23.408;2022-10-16T04:23:02;95632.72;;;5.54;100.00
24280;BME280;12395;42.808;23.408;2022-10-16T04:25:27;95623.97;;;5.45;100.00
24280;BME280;12395;42.808;23.408;2022-10-16T04:27:53;95644.22;;;5.53;100.00
24280;BME280;12395;42.808;23.408;2022-10-16T04:30:20;95643.56;;;5.51;100.00
24280;BME280;12395;42.808;23.408;2022-10-16T04:32:49;95633.16;;;5.41;100.00
24280;BME280;12395;42.808;23.408;2022-10-16T04:35:15;95648.25;;;5.39;100.00
24280;BME280;12395;42.808;23.408;2022-10-16T04:37:41;95640.16;;;5.25;100.00
24280;BME280;12395;42.808;23.408;2022-10-16T04:40:07;95661.53;;;5.30;100.00
24280;BME280;12395;42.808;23.408;2022-10-16T04:42:32;95654.41;;;5.22;100.00
24280;BME280;12395;42.808;23.408;2022-10-16T04:44:57;95661.81;;;5.27;100.00
24280;BME280;12395;42.808;23.408;2022-10-16T04:47:23;95668.53;;;5.21;100.00
24280;BME280;12395;42.808;23.408;2022-10-16T04:49:48;95660.97;;;5.18;100.00
24280;BME280;12395;42.808;23.408;2022-10-16T04:52:14;95671.00;;;5.23;100.00
24280;BME280;12395;42.808;23.408;2022-10-16T04:54:40;95664.91;;;5.22;100.00
24280;BME280;12395;42.808;23.408;2022-10-16T04:57:05;95668.06;;;5.26;100.00
24280;BME280;12395;42.808;23.408;2022-10-16T04:59:30;95675.25;;;5.24;100.00
24280;BME280;12395;42.808;23.408;2022-10-16T05:01:56;95672.25;;;5.11;100.00
24280;BME280;12395;42.808;23.408;2022-10-16T05:04:21;95666.81;;;5.04;100.00
24280;BME280;12395;42.808;23.408;2022-10-16T05:06:47;95680.81;;;5.13;100.00
24280;BME280;12395;42.808;23.408;2022-10-16T05:09:13;95678.09;;;5.05;100.00
24280;BME280;12395;42.808;23.408;2022-10-16T05:11:38;95676.50;;;5.12;100.00
24280;BME280;12395;42.808;23.408;2022-10-16T05:14:04;95691.66;;;5.18;100.00
24280;BME280;12395;42.808;23.408;2022-10-16T05:16:29;95687.38;;;5.17;100.00
24280;BME280;12395;42.808;23.408;2022-10-16T05:18:55;95684.09;;;5.15;100.00
24280;BME280;12395;42.808;23.408;2022-10-16T05:21:21;95683.97;;;5.24;100.00
24280;BME280;12395;42.808;23.408;2022-10-16T05:23:47;95685.50;;;5.35;100.00
24280;BME280;12395;42.808;23.408;2022-10-16T05:26:12;95677.16;;;5.39;100.00
24280;BME280;12395;42.808;23.408;2022-10-16T05:28:38;95684.56;;;5.44;100.00
24280;BME280;12395;42.808;23.408;2022-10-16T05:31:07;95678.03;;;5.48;100.00
24280;BME280;12395;42.808;23.408;2022-10-16T05:33:33;95678.06;;;5.56;100.00
24280;BME280;12395;42.808;23.408;2022-10-16T05:36:06;95683.94;;;5.50;100.00
24280;BME280;12395;42.808;23.408;2022-10-16T05:38:33;95683.84;;;5.60;100.00
24280;BME280;12395;42.808;23.408;2022-10-16T05:40:58;95692.25;;;5.71;100.00
24280;BME280;12395;42.808;23.408;2022-10-16T05:43:24;95699.53;;;5.77;100.00
24280;BME280;12395;42.808;23.408;2022-10-16T05:46:01;95690.16;;;5.83;100.00
24280;BME280;12395;42.808;23.408;2022-10-16T05:48:27;95698.63;;;5.94;100.00
24280;BME280;12395;42.808;23.408;2022-10-16T05:51:01;95707.88;;;6.06;100.00
24280;BME280;12395;42.808;23.408;2022-10-16T05:53:28;95716.13;;;6.19;100.00
24280;BME280;12395;42.808;23.408;2022-10-16T05:55:54;95723.88;;;6.29;100.00
24280;BME280;12395;42.808;23.408;2022-10-16T05:58:21;95720.09;;;6.40;100.00
24280;BME280;12395;42.808;23.408;2022-10-16T06:00:57;95720.78;;;6.50;100.00
24280;BME280;12395;42.808;23.408;2022-10-16T06:03:23;95729.34;;;6.68;100.00
24280;BME280;12395;42.808;23.408;2022-10-16T06:05:48;95737.91;;;6.70;100.00
24280;BME280;12395;42.808;23.408;2022-10-16T06:08:14;95726.59;;;6.77;100.00
24280;BME280;12395;42.808;23.408;2022-10-16T06:10:39;95728.22;;;6.86;100.00
24280;BME280;12395;42.808;23.408;2022-10-16T06:13:05;95745.53;;;7.05;100.00
24280;BME280;12395;42.808;23.408;2022-10-16T06:15:30;95739.25;;;7.06;100.00
24280;BME280;12395;42.808;23.408;2022-10-16T06:17:56;95754.72;;;7.25;100.00
24280;BME280;12395;42.808;23.408;2022-10-16T06:20:21;95750.75;;;7.29;100.00
24280;BME280;12395;42.808;23.408;2022-10-16T06:22:46;95736.78;;;7.29;100.00
24280;BME280;12395;42.808;23.408;2022-10-16T06:25:12;95751.25;;;7.41;100.00
24280;BME280;12395;42.808;23.408;2022-10-16T06:27:39;95748.94;;;7.46;100.00
24280;BME280;12395;42.808;23.408;2022-10-16T06:30:06;95761.28;;;7.53;100.00
24280;BME280;12395;42.808;23.408;2022-10-16T06:32:32;95759.47;;;7.54;100.00
24280;BME280;12395;42.808;23.408;2022-10-16T06:34:57;95772.78;;;7.68;100.00
24280;BME280;12395;42.808;23.408;2022-10-16T06:37:22;95767.84;;;7.73;100.00
24280;BME280;12395;42.808;23.408;2022-10-16T06:39:48;95775.06;;;7.79;100.00
24280;BME280;12395;42.808;23.408;2022-10-16T06:42:13;95758.22;;;7.80;100.00
24280;BME280;12395;42.808;23.408;2022-10-16T06:44:39;95774.03;;;7.97;100.00
24280;BME280;12395;42.808;23.408;2022-10-16T06:47:04;95777.28;;;8.07;100.00
24280;BME280;12395;42.808;23.408;2022-10-16T06:49:29;95764.75;;;8.09;100.00
24280;BME280;12395;42.808;23.408;2022-10-16T06:51:55;95780.53;;;8.25;100.00
24280;BME280;12395;42.808;23.408;2022-10-16T06:54:20;95758.56;;;8.24;100.00
24280;BME280;12395;42.808;23.408;2022-10-16T06:56:45;95774.25;;;8.34;100.00
24280;BME280;12395;42.808;23.408;2022-10-16T06:59:11;95779.78;;;8.47;100.00
24280;BME280;12395;42.808;23.408;2022-10-16T07:01:36;95775.97;;;8.49;100.00
24280;BME280;12395;42.808;23.408;2022-10-16T07:04:02;95783.81;;;8.66;100.00
24280;BME280;12395;42.808;23.408;2022-10-16T07:06:31;95783.59;;;8.75;100.00
24280;BME280;12395;42.808;23.408;2022-10-16T07:08:56;95794.72;;;8.93;100.00
24280;BME280;12395;42.808;23.408;2022-10-16T07:11:23;95803.88;;;9.05;100.00
24280;BME280;12395;42.808;23.408;2022-10-16T07:13:50;95809.09;;;9.13;100.00
24280;BME280;12395;42.808;23.408;2022-10-16T07:16:18;95806.41;;;9.21;100.00
24280;BME280;12395;42.808;23.408;2022-10-16T07:18:44;95808.63;;;9.32;100.00
24280;BME280;12395;42.808;23.408;2022-10-16T07:21:16;95808.56;;;9.41;100.00
24280;BME280;12395;42.808;23.408;2022-10-16T07:23:43;95813.34;;;9.45;100.00
24280;BME280;12395;42.808;23.408;2022-10-16T07:26:08;95816.06;;;9.52;100.00
24280;BME280;12395;42.808;23.408;2022-10-16T07:28:35;95789.69;;;9.44;100.00
24280;BME280;12395;42.808;23.408;2022-10-16T07:31:02;95817.63;;;9.61;100.00
24280;BME280;12395;42.808;23.408;2022-10-16T07:33:28;95814.91;;;9.69;100.00
24280;BME280;12395;42.808;23.408;2022-10-16T07:35:54;95812.56;;;9.74;100.00
24280;BME280;12395;42.808;23.408;2022-10-16T07:38:21;95810.84;;;9.81;100.00
24280;BME280;12395;42.808;23.408;2022-10-16T07:40:47;95815.06;;;9.90;100.00
24280;BME280;12395;42.808;23.408;2022-10-16T07:43:13;95819.25;;;9.99;100.00
24280;BME280;12395;42.808;23.408;2022-10-16T07:45:47;95810.88;;;10.10;100.00
24280;BME280;12395;42.808;23.408;2022-10-16T07:48:13;95803.50;;;10.20;100.00
24280;BME280;12395;42.808;23.408;2022-10-16T07:50:39;95812.44;;;10.34;99.84
24280;BME280;12395;42.808;23.408;2022-10-16T07:53:04;95799.09;;;10.42;99.69
24280;BME280;12395;42.808;23.408;2022-10-16T07:55:29;95796.09;;;10.45;99.66
24280;BME280;12395;42.808;23.408;2022-10-16T07:57:55;95811.78;;;10.61;98.66
24280;BME280;12395;42.808;23.408;2022-10-16T08:00:20;95812.00;;;10.80;98.95
24280;BME280;12395;42.808;23.408;2022-10-16T08:02:46;95820.88;;;10.88;98.24
24280;BME280;12395;42.808;23.408;2022-10-16T08:05:11;95819.56;;;10.98;97.34
24280;BME280;12395;42.808;23.408;2022-10-16T08:07:37;95834.44;;;11.14;96.51
24280;BME280;12395;42.808;23.408;2022-10-16T08:10:03;95823.06;;;11.20;96.39
24280;BME280;12395;42.808;23.408;2022-10-16T08:12:28;95825.59;;;11.28;95.92
24280;BME280;12395;42.808;23.408;2022-10-16T08:14:54;95816.25;;;11.32;94.70
24280;BME280;12395;42.808;23.408;2022-10-16T08:17:19;95816.38;;;11.45;93.64
24280;BME280;12395;42.808;23.408;2022-10-16T08:19:45;95825.09;;;11.60;93.08
24280;BME280;12395;42.808;23.408;2022-10-16T08:22:11;95831.53;;;11.72;91.17
24280;BME280;12395;42.808;23.408;2022-10-16T08:24:37;95820.81;;;11.80;89.84
24280;BME280;12395;42.808;23.408;2022-10-16T08:27:02;95809.56;;;11.78;90.49
24280;BME280;12395;42.808;23.408;2022-10-16T08:29:28;95824.19;;;11.95;89.64
24280;BME280;12395;42.808;23.408;2022-10-16T08:31:53;95818.06;;;11.95;89.65
24280;BME280;12395;42.808;23.408;2022-10-16T08:34:19;95822.84;;;12.06;88.34
24280;BME280;12395;42.808;23.408;2022-10-16T08:36:44;95820.03;;;12.14;86.38
24280;BME280;12395;42.808;23.408;2022-10-16T08:39:10;95819.44;;;12.18;84.07
24280;BME280;12395;42.808;23.408;2022-10-16T08:49:27;95830.09;;;12.59;83.43
24280;BME280;12395;42.808;23.408;2022-10-16T08:51:53;95820.91;;;12.68;82.64
24280;BME280;12395;42.808;23.408;2022-10-16T08:54:29;95829.56;;;12.77;83.16
24280;BME280;12395;42.808;23.408;2022-10-16T08:56:57;95822.59;;;12.76;81.30
24280;BME280;12395;42.808;23.408;2022-10-16T08:59:26;95826.31;;;12.81;81.91
24280;BME280;12395;42.808;23.408;2022-10-16T09:01:52;95831.09;;;12.99;80.27
24280;BME280;12395;42.808;23.408;2022-10-16T09:07:00;95827.91;;;13.17;79.70
24280;BME280;12395;42.808;23.408;2022-10-16T09:12:37;95810.31;;;13.29;78.23
24280;BME280;12395;42.808;23.408;2022-10-16T09:17:59;95827.34;;;13.47;77.66
24280;BME280;12395;42.808;23.408;2022-10-16T09:21:19;95822.47;;;13.57;76.69
24280;BME280;12395;42.808;23.408;2022-10-16T09:23:26;95826.75;;;13.71;75.39
24280;BME280;12395;42.808;23.408;2022-10-16T09:25:52;95825.31;;;13.75;75.72
24280;BME280;12395;42.808;23.408;2022-10-16T09:28:19;95823.50;;;13.82;73.26
24280;BME280;12395;42.808;23.408;2022-10-16T09:30:45;95825.13;;;13.90;72.64
24280;BME280;12395;42.808;23.408;2022-10-16T09:33:12;95808.94;;;13.85;72.74
24280;BME280;12395;42.808;23.408;2022-10-16T09:35:44;95823.28;;;13.97;72.34
24280;BME280;12395;42.808;23.408;2022-10-16T09:40:48;95810.34;;;14.14;71.97
24280;BME280;12395;42.808;23.408;2022-10-16T09:43:26;95812.38;;;14.25;70.57
24280;BME280;12395;42.808;23.408;2022-10-16T09:48:38;95806.06;;;14.32;68.21
24280;BME280;12395;42.808;23.408;2022-10-16T09:51:13;95814.06;;;14.39;69.47
24280;BME280;12395;42.808;23.408;2022-10-16T09:53:43;95804.78;;;14.41;68.17
24280;BME280;12395;42.808;23.408;2022-10-16T09:56:10;95793.06;;;14.55;70.63
24280;BME280;12395;42.808;23.408;2022-10-16T09:58:42;95791.19;;;14.69;70.57
24280;BME280;12395;42.808;23.408;2022-10-16T10:01:13;95797.28;;;14.83;68.58
24280;BME280;12395;42.808;23.408;2022-10-16T10:03:41;95802.97;;;14.93;68.24
24280;BME280;12395;42.808;23.408;2022-10-16T10:08:56;95791.25;;;15.00;65.53
24280;BME280;12395;42.808;23.408;2022-10-16T10:14:55;95794.34;;;14.97;63.80
24280;BME280;12395;42.808;23.408;2022-10-16T10:19:30;95780.50;;;15.13;64.45
24280;BME280;12395;42.808;23.408;2022-10-16T10:21:55;95779.06;;;15.17;64.47
24280;BME280;12395;42.808;23.408;2022-10-16T10:24:23;95768.94;;;15.26;65.20
24280;BME280;12395;42.808;23.408;2022-10-16T10:27:00;95782.19;;;15.46;63.86
24280;BME280;12395;42.808;23.408;2022-10-16T10:29:42;95782.53;;;15.56;62.86
24280;BME280;12395;42.808;23.408;2022-10-16T10:32:17;95778.16;;;15.61;62.21
24280;BME280;12395;42.808;23.408;2022-10-16T10:35:02;95761.53;;;15.59;62.51
24280;BME280;12395;42.808;23.408;2022-10-16T10:40:52;95769.53;;;15.90;62.08
24280;BME280;12395;42.808;23.408;2022-10-16T10:46:09;95764.72;;;15.99;59.03
24280;BME280;12395;42.808;23.408;2022-10-16T10:51:36;95755.50;;;16.13;58.48
24280;BME280;12395;42.808;23.408;2022-10-16T10:56:51;95756.44;;;16.25;58.10
24280;BME280;12395;42.808;23.408;2022-10-16T11:02:18;95751.81;;;16.32;56.49
24280;BME280;12395;42.808;23.408;2022-10-16T11:07:47;95742.13;;;16.38;56.97
24280;BME280;12395;42.808;23.408;2022-10-16T11:10:42;95744.13;;;16.60;50.58
24280;BME280;12395;42.808;23.408;2022-10-16T11:15:37;95741.31;;;16.73;47.91
24280;BME280;12395;42.808;23.408;2022-10-16T11:18:08;95741.13;;;16.86;46.06
24280;BME280;12395;42.808;23.408;2022-10-16T11:20:42;95743.34;;;16.89;46.30
24280;BME280;12395;42.808;23.408;2022-10-16T11:23:31;95732.94;;;17.00;41.74
24280;BME280;12395;42.808;23.408;2022-10-16T11:26:02;95729.78;;;17.03;41.00
24280;BME280;12395;42.808;23.408;2022-10-16T11:28:53;95724.34;;;17.09;39.47
24280;BME280;12395;42.808;23.408;2022-10-16T11:31:36;95724.03;;;17.17;39.64
24280;BME280;12395;42.808;23.408;2022-10-16T11:34:28;95735.72;;;17.34;39.79
24280;BME280;12395;42.808;23.408;2022-10-16T11:37:17;95747.25;;;17.35;38.27
24280;BME280;12395;42.808;23.408;2022-10-16T11:39:45;95726.75;;;17.29;39.87
24280;BME280;12395;42.808;23.408;2022-10-16T11:42:16;95737.25;;;17.42;37.69
24280;BME280;12395;42.808;23.408;2022-10-16T11:44:51;95745.16;;;17.37;37.29
24280;BME280;12395;42.808;23.408;2022-10-16T11:47:28;95746.56;;;17.39;37.32
24280;BME280;12395;42.808;23.408;2022-10-16T11:50:00;95743.44;;;17.42;35.58
24280;BME280;12395;42.808;23.408;2022-10-16T11:52:52;95736.44;;;17.41;37.42
24280;BME280;12395;42.808;23.408;2022-10-16T11:55:27;95738.53;;;17.39;36.93
24280;BME280;12395;42.808;23.408;2022-10-16T12:01:22;95737.16;;;17.48;35.34
24280;BME280;12395;42.808;23.408;2022-10-16T12:07:07;95736.28;;;17.54;36.47
24280;BME280;12395;42.808;23.408;2022-10-16T12:09:38;95729.16;;;17.60;37.38
24280;BME280;12395;42.808;23.408;2022-10-16T12:12:04;95734.91;;;17.63;36.52
24280;BME280;12395;42.808;23.408;2022-10-16T12:17:34;95742.13;;;17.63;35.47
24280;BME280;12395;42.808;23.408;2022-10-16T12:20:19;95733.72;;;17.59;35.23
24280;BME280;12395;42.808;23.408;2022-10-16T12:22:50;95729.06;;;17.66;35.30
24280;BME280;12395;42.808;23.408;2022-10-16T12:30:31;95735.13;;;17.62;34.31
24280;BME280;12395;42.808;23.408;2022-10-16T12:33:05;95740.38;;;17.57;34.98
24280;BME280;12395;42.808;23.408;2022-10-16T12:35:35;95732.19;;;17.52;35.60
24280;BME280;12395;42.808;23.408;2022-10-16T12:38:19;95730.00;;;17.60;36.14
24280;BME280;12395;42.808;23.408;2022-10-16T12:40:54;95735.72;;;17.64;35.70
24280;BME280;12395;42.808;23.408;2022-10-16T12:45:45;95741.28;;;17.51;35.08
24280;BME280;12395;42.808;23.408;2022-10-16T12:48:20;95749.44;;;17.56;35.50
24280;BME280;12395;42.808;23.408;2022-10-16T12:50:46;95739.03;;;17.48;36.26
24280;BME280;12395;42.808;23.408;2022-10-16T12:53:21;95742.53;;;17.48;36.72
24280;BME280;12395;42.808;23.408;2022-10-16T12:55:55;95748.84;;;17.54;36.64
24280;BME280;12395;42.808;23.408;2022-10-16T12:59:02;95750.34;;;17.50;36.57
24280;BME280;12395;42.808;23.408;2022-10-16T13:07:48;95758.78;;;17.65;38.15
24280;BME280;12395;42.808;23.408;2022-10-16T13:10:26;95761.31;;;17.60;36.68
24280;BME280;12395;42.808;23.408;2022-10-16T13:13:01;95761.97;;;17.44;37.45
24280;BME280;12395;42.808;23.408;2022-10-16T13:26:46;95767.41;;;17.37;37.42
24280;BME280;12395;42.808;23.408;2022-10-16T13:29:15;95743.06;;;17.27;38.73
24280;BME280;12395;42.808;23.408;2022-10-16T13:31:43;95742.81;;;17.29;38.68
24280;BME280;12395;42.808;23.408;2022-10-16T13:34:18;95745.75;;;17.39;38.79
24280;BME280;12395;42.808;23.408;2022-10-16T13:36:47;95753.00;;;17.38;38.29
24280;BME280;12395;42.808;23.408;2022-10-16T13:39:25;95757.06;;;17.41;39.32
24280;BME280;12395;42.808;23.408;2022-10-16T13:44:23;95758.78;;;17.35;39.04
24280;BME280;12395;42.808;23.408;2022-10-16T13:47:01;95758.06;;;17.28;40.13
24280;BME280;12395;42.808;23.408;2022-10-16T13:49:26;95747.00;;;17.25;39.74
24280;BME280;12395;42.808;23.408;2022-10-16T13:51:57;95762.63;;;17.28;40.13
24280;BME280;12395;42.808;23.408;2022-10-16T13:54:24;95765.31;;;17.28;40.72
24280;BME280;12395;42.808;23.408;2022-10-16T13:56:50;95770.50;;;17.23;40.55
24280;BME280;12395;42.808;23.408;2022-10-16T13:59:33;95765.97;;;17.23;40.92
24280;BME280;12395;42.808;23.408;2022-10-16T14:02:00;95760.34;;;17.13;40.72
24280;BME280;12395;42.808;23.408;2022-10-16T14:04:32;95761.38;;;17.12;41.13
24280;BME280;12395;42.808;23.408;2022-10-16T14:06:58;95761.00;;;17.09;40.00
24280;BME280;12395;42.808;23.408;2022-10-16T14:09:29;95770.94;;;17.08;40.04
24280;BME280;12395;42.808;23.408;2022-10-16T14:12:03;95762.38;;;17.00;40.11
24280;BME280;12395;42.808;23.408;2022-10-16T14:14:41;95777.38;;;17.01;40.39
24280;BME280;12395;42.808;23.408;2022-10-16T14:17:23;95781.56;;;16.96;40.41
24280;BME280;12395;42.808;23.408;2022-10-16T14:19:52;95766.75;;;16.94;40.89
24280;BME280;12395;42.808;23.408;2022-10-16T14:22:27;95778.44;;;17.00;41.12
24280;BME280;12395;42.808;23.408;2022-10-16T14:24:54;95772.44;;;16.86;41.03
24280;BME280;12395;42.808;23.408;2022-10-16T14:27:32;95770.00;;;16.84;41.62
24280;BME280;12395;42.808;23.408;2022-10-16T14:30:19;95765.16;;;16.75;41.00
24280;BME280;12395;42.808;23.408;2022-10-16T14:33:06;95779.19;;;16.70;40.92
24280;BME280;12395;42.808;23.408;2022-10-16T14:35:45;95757.22;;;16.50;41.68
24280;BME280;12395;42.808;23.408;2022-10-16T14:38:20;95778.31;;;16.58;41.67
24280;BME280;12395;42.808;23.408;2022-10-16T14:40:51;95781.91;;;16.52;42.20